createdAt,value
2018-07-05T00:02:23.457Z,68.96
2018-07-05T00:05:03.223Z,68.91
2018-07-05T00:07:43.119Z,69.21
2018-07-05T00:10:23.055Z,68.59
2018-07-05T00:13:02.864Z,68.40
2018-07-05T00:15:42.647Z,68.21
2018-07-05T00:18:22.692Z,69.63
2018-07-05T00:21:02.515Z,69.28
2018-07-05T00:23:42.648Z,70.75
2018-07-05T00:26:22.485Z,70.18
2018-07-05T00:29:02.534Z,70.14
2018-07-05T00:31:42.391Z,71.05
2018-07-05T00:34:22.340Z,71.80
2018-07-05T00:37:02.236Z,69.88
2018-07-05T00:39:42.227Z,70.00
2018-07-05T00:42:22.136Z,71.08
2018-07-05T00:45:02.324Z,70.22
2018-07-05T00:47:42.179Z,71.09
2018-07-05T00:50:22.212Z,70.91
2018-07-05T00:53:01.972Z,70.55
2018-07-05T00:55:41.652Z,70.78
2018-07-05T00:58:21.407Z,71.71
2018-07-05T01:01:01.200Z,73.06
2018-07-05T01:03:40.836Z,71.39
2018-07-05T01:06:20.591Z,70.95
2018-07-05T01:09:00.550Z,71.21
2018-07-05T01:11:40.788Z,71.01
2018-07-05T01:14:20.618Z,71.21
2018-07-05T01:17:00.909Z,70.61
2018-07-05T01:19:41.036Z,71.49
2018-07-05T01:22:21.607Z,72.54
2018-07-05T01:25:01.491Z,72.09
2018-07-05T01:27:41.237Z,71.49
2018-07-05T01:30:21.143Z,71.75
2018-07-05T01:33:01.097Z,71.60
2018-07-05T01:35:40.838Z,71.36
2018-07-05T01:38:20.823Z,71.82
2018-07-05T01:41:01.011Z,72.27
2018-07-05T01:43:41.108Z,71.81
2018-07-05T01:46:21.047Z,71.13
2018-07-05T01:49:01.224Z,71.35
2018-07-05T01:51:40.939Z,71.38
2018-07-05T01:54:21.008Z,71.34
2018-07-05T01:57:00.715Z,71.28
2018-07-05T01:59:41.219Z,71.33
2018-07-05T02:02:20.896Z,71.06
2018-07-05T02:05:00.904Z,70.93
2018-07-05T02:07:40.604Z,71.45
2018-07-05T02:10:20.672Z,71.40
2018-07-05T02:13:00.379Z,71.35
2018-07-05T02:15:40.511Z,70.94
2018-07-05T02:18:20.436Z,70.57
2018-07-05T02:21:00.404Z,70.90
2018-07-05T02:23:40.128Z,70.86
2018-07-05T02:26:19.940Z,70.58
2018-07-05T02:28:59.764Z,71.20
2018-07-05T02:31:39.936Z,70.97
2018-07-05T02:34:19.756Z,70.34
2018-07-05T02:36:59.559Z,70.79
2018-07-05T02:39:44.580Z,70.72
2018-07-05T02:42:24.707Z,71.00
2018-07-05T02:45:04.589Z,70.70
2018-07-05T02:47:44.347Z,70.12
2018-07-05T02:50:24.167Z,69.53
2018-07-05T02:53:04.009Z,68.75
2018-07-05T02:55:43.770Z,69.93
2018-07-05T02:58:23.597Z,70.93
2018-07-05T03:01:04.256Z,69.24
2018-07-05T03:03:44.028Z,70.20
2018-07-05T03:06:23.891Z,72.14
2018-07-05T03:09:05.053Z,72.10
2018-07-05T03:11:44.876Z,71.24
2018-07-05T03:14:24.814Z,71.82
2018-07-05T03:17:04.625Z,71.37
2018-07-05T03:19:44.389Z,70.55
2018-07-05T03:22:24.142Z,69.94
2018-07-05T03:25:04.137Z,69.71
2018-07-05T03:27:43.929Z,69.61
2018-07-05T03:30:24.019Z,69.71
2018-07-05T03:33:03.728Z,69.62
2018-07-05T03:35:43.707Z,69.39
2018-07-05T03:38:23.312Z,69.21
2018-07-05T03:41:03.153Z,71.08
2018-07-05T03:43:42.781Z,71.76
2018-07-05T03:46:22.996Z,70.05
2018-07-05T03:49:02.832Z,70.29
2018-07-05T03:51:42.783Z,68.94
2018-07-05T03:54:22.555Z,68.43
2018-07-05T03:57:02.600Z,67.24
2018-07-05T03:59:42.473Z,67.16
2018-07-05T04:02:22.184Z,66.57
2018-07-05T04:05:01.905Z,66.56
2018-07-05T04:07:41.743Z,66.30
2018-07-05T04:10:21.512Z,67.53
2018-07-05T04:13:01.471Z,66.57
2018-07-05T04:15:41.349Z,65.90
2018-07-05T04:18:21.180Z,65.96
2018-07-05T04:21:01.039Z,66.70
2018-07-05T04:23:40.864Z,66.45
2018-07-05T04:26:20.792Z,66.41
2018-07-05T04:29:00.855Z,65.87
2018-07-05T04:31:40.791Z,66.88
2018-07-05T04:34:20.721Z,68.49
2018-07-05T04:37:00.376Z,69.95
2018-07-05T04:39:40.300Z,67.93
2018-07-05T04:42:20.076Z,67.20
2018-07-05T04:44:59.896Z,66.37
2018-07-05T04:47:40.084Z,66.14
2018-07-05T04:50:20.372Z,65.41
2018-07-05T04:53:00.332Z,65.24
2018-07-05T04:55:40.624Z,64.63
2018-07-05T04:58:20.426Z,64.30
2018-07-05T05:01:00.121Z,63.82
2018-07-05T05:03:39.927Z,64.39
2018-07-05T05:06:20.060Z,64.20
2018-07-05T05:08:59.923Z,64.62
2018-07-05T05:11:39.964Z,65.05
2018-07-05T05:14:19.819Z,65.00
2018-07-05T05:16:59.691Z,65.12
2018-07-05T05:19:39.376Z,65.21
2018-07-05T05:22:19.279Z,65.01
2018-07-05T05:24:58.979Z,67.21
2018-07-05T05:27:38.721Z,66.19
2018-07-05T05:30:18.410Z,65.44
2018-07-05T05:32:58.379Z,64.31
2018-07-05T05:35:38.072Z,63.94
2018-07-05T05:38:18.087Z,63.65
2018-07-05T05:40:58.165Z,63.22
2018-07-05T05:43:38.435Z,63.69
2018-07-05T05:46:18.091Z,63.28
2018-07-05T05:48:57.927Z,63.16
2018-07-05T05:51:37.688Z,62.52
2018-07-05T05:54:17.572Z,62.39
2018-07-05T05:56:57.179Z,63.67
2018-07-05T05:59:36.956Z,62.65
2018-07-05T06:02:16.776Z,63.38
2018-07-05T06:04:56.632Z,62.84
2018-07-05T06:07:36.372Z,61.92
2018-07-05T06:10:16.281Z,63.75
2018-07-05T06:12:55.907Z,63.75
2018-07-05T06:15:36.203Z,62.90
2018-07-05T06:18:15.948Z,61.32
2018-07-05T06:20:55.740Z,62.22
2018-07-05T06:23:35.459Z,60.01
2018-07-05T06:26:15.505Z,59.59
2018-07-05T06:28:55.348Z,60.62
2018-07-05T06:31:35.184Z,60.08
2018-07-05T06:34:15.046Z,59.97
2018-07-05T06:36:54.879Z,59.34
2018-07-05T06:39:34.777Z,58.41
2018-07-05T06:42:14.625Z,58.69
2018-07-05T06:44:54.418Z,59.02
2018-07-05T06:47:34.981Z,58.79
2018-07-05T06:50:14.808Z,58.53
2018-07-05T06:52:54.454Z,59.66
2018-07-05T06:55:34.327Z,58.69
2018-07-05T06:58:14.581Z,58.80
2018-07-05T07:00:54.487Z,58.78
2018-07-05T07:03:34.339Z,58.38
2018-07-05T07:06:14.044Z,61.16
2018-07-05T07:08:54.087Z,61.49
2018-07-05T07:11:33.567Z,60.78
2018-07-05T07:14:13.380Z,60.43
2018-07-05T07:16:53.105Z,61.23
2018-07-05T07:19:32.867Z,61.51
2018-07-05T07:22:12.621Z,59.94
2018-07-05T07:24:52.546Z,60.27
2018-07-05T07:27:32.323Z,60.61
2018-07-05T07:30:12.353Z,60.38
2018-07-05T07:32:52.243Z,60.72
2018-07-05T07:35:32.044Z,58.70
2018-07-05T07:38:12.018Z,58.07
2018-07-05T07:40:52.132Z,58.60
2018-07-05T07:43:19.613Z,57.23
2018-07-05T07:45:46.975Z,55.87
2018-07-05T07:48:14.495Z,55.82
2018-07-05T07:50:41.784Z,56.09
2018-07-05T07:53:09.077Z,56.55
2018-07-05T07:55:36.386Z,55.11
2018-07-05T07:58:03.666Z,55.37
2018-07-05T08:00:30.952Z,55.21
2018-07-05T08:02:58.269Z,55.25
2018-07-05T08:05:25.574Z,55.47
2018-07-05T08:07:53.232Z,55.61
2018-07-05T08:10:20.800Z,55.73
2018-07-05T08:12:48.477Z,56.54
2018-07-05T08:15:15.775Z,56.49
2018-07-05T08:17:43.276Z,55.07
2018-07-05T08:20:10.803Z,54.84
2018-07-05T08:22:38.094Z,55.13
2018-07-05T08:25:05.408Z,57.00
2018-07-05T08:27:32.703Z,56.75
2018-07-05T08:29:59.984Z,58.29
2018-07-05T08:32:27.505Z,57.53
2018-07-05T08:34:54.875Z,57.43
2018-07-05T08:37:22.184Z,58.94
2018-07-05T08:39:49.868Z,58.75
2018-07-05T08:42:17.162Z,59.32
2018-07-05T08:44:44.560Z,59.96
2018-07-05T08:47:12.040Z,60.60
2018-07-05T08:49:39.331Z,59.16
2018-07-05T08:52:06.724Z,58.76
2018-07-05T08:54:34.224Z,58.48
2018-07-05T08:57:01.577Z,58.05
2018-07-05T08:59:28.855Z,59.03
2018-07-05T09:01:56.674Z,59.27
2018-07-05T09:04:24.044Z,58.97
2018-07-05T09:06:51.323Z,57.07
2018-07-05T09:09:18.761Z,55.94
2018-07-05T09:11:46.161Z,55.93
2018-07-05T09:14:13.452Z,55.82
2018-07-05T09:16:40.780Z,55.41
2018-07-05T09:19:08.056Z,55.77
2018-07-05T09:21:35.356Z,54.65
2018-07-05T09:24:03.797Z,54.01
2018-07-05T09:26:31.128Z,53.94
2018-07-05T09:28:58.430Z,54.19
2018-07-05T09:31:25.970Z,52.50
2018-07-05T09:33:53.287Z,54.44
2018-07-05T09:36:20.601Z,52.96
2018-07-05T09:38:48.106Z,52.86
2018-07-05T09:41:15.380Z,51.88
2018-07-05T09:43:42.667Z,51.88
2018-07-05T09:46:10.388Z,51.01
2018-07-05T09:48:37.677Z,52.18
2018-07-05T09:51:05.284Z,51.23
2018-07-05T09:53:32.768Z,50.74
2018-07-05T09:56:00.206Z,51.94
2018-07-05T09:58:27.492Z,50.93
2018-07-05T10:00:54.875Z,53.17
2018-07-05T10:03:22.885Z,52.29
2018-07-05T10:05:50.236Z,53.13
2018-07-05T10:08:18.643Z,51.80
2018-07-05T10:10:45.944Z,52.29
2018-07-05T10:13:13.778Z,54.38
2018-07-05T10:15:41.524Z,52.76
2018-07-05T10:18:08.880Z,53.26
2018-07-05T10:20:36.164Z,52.31
2018-07-05T10:23:03.695Z,53.68
2018-07-05T10:25:31.050Z,54.86
2018-07-05T10:27:58.335Z,54.12
2018-07-05T10:30:38.439Z,55.00
2018-07-05T10:33:18.079Z,53.81
2018-07-05T10:35:45.550Z,54.06
2018-07-05T10:38:12.834Z,54.15
2018-07-05T10:40:52.776Z,54.32
2018-07-05T10:43:32.519Z,54.49
2018-07-05T10:46:12.366Z,54.18
2018-07-05T10:48:52.304Z,53.91
2018-07-05T10:51:32.224Z,54.05
2018-07-05T10:54:11.959Z,54.37
2018-07-05T10:56:51.855Z,54.93
2018-07-05T10:59:31.616Z,55.53
2018-07-05T11:02:11.931Z,56.27
2018-07-05T11:04:51.857Z,56.90
2018-07-05T11:07:31.752Z,57.99
2018-07-05T11:10:11.487Z,57.50
2018-07-05T11:12:51.424Z,58.57
2018-07-05T11:15:31.290Z,58.55
2018-07-05T11:18:11.423Z,59.68
2018-07-05T11:20:51.011Z,59.05
2018-07-05T11:23:30.719Z,60.14
2018-07-05T11:26:10.496Z,60.48
2018-07-05T11:28:50.219Z,59.50
2018-07-05T11:31:30.073Z,59.70
2018-07-05T11:34:09.924Z,58.57
2018-07-05T11:36:49.745Z,58.21
2018-07-05T11:39:29.643Z,57.75
2018-07-05T11:42:09.364Z,58.79
2018-07-05T11:44:49.193Z,59.09
2018-07-05T11:47:28.852Z,57.84
2018-07-05T11:50:08.477Z,58.34
2018-07-05T11:52:48.312Z,59.03
2018-07-05T11:55:28.384Z,59.22
2018-07-05T11:58:08.120Z,59.06
2018-07-05T12:00:48.367Z,58.71
2018-07-05T12:03:28.105Z,60.12
2018-07-05T12:06:07.728Z,61.45
2018-07-05T12:08:47.763Z,61.16
2018-07-05T12:11:27.659Z,61.82
2018-07-05T12:14:07.292Z,62.21
2018-07-05T12:16:47.247Z,60.45
2018-07-05T12:19:26.831Z,61.55
2018-07-05T12:22:06.867Z,61.55
2018-07-05T12:24:46.533Z,62.81
2018-07-05T12:27:26.548Z,61.40
2018-07-05T12:30:06.677Z,61.67
2018-07-05T12:32:46.372Z,62.15
2018-07-05T12:35:26.132Z,60.91
2018-07-05T12:38:05.894Z,61.72
2018-07-05T12:40:45.567Z,62.19
2018-07-05T12:43:25.215Z,61.29
2018-07-05T12:46:04.993Z,58.79
2018-07-05T12:48:44.872Z,57.85
2018-07-05T12:51:24.627Z,57.59
2018-07-05T12:54:04.587Z,55.75
2018-07-05T12:56:44.400Z,55.79
2018-07-05T12:59:24.707Z,56.89
2018-07-05T13:02:04.572Z,56.55
2018-07-05T13:04:44.434Z,57.76
2018-07-05T13:07:24.260Z,58.60
2018-07-05T13:10:04.308Z,59.47
2018-07-05T13:12:44.305Z,59.39
2018-07-05T13:15:24.151Z,59.60
2018-07-05T13:18:03.756Z,58.58
2018-07-05T13:20:43.952Z,59.04
2018-07-05T13:23:23.560Z,59.92
2018-07-05T13:26:03.293Z,59.08
2018-07-05T13:28:43.053Z,59.67
2018-07-05T13:31:22.831Z,59.90
2018-07-05T13:34:02.649Z,58.61
2018-07-05T13:36:42.669Z,59.09
2018-07-05T13:39:22.320Z,58.37
2018-07-05T13:42:01.932Z,59.67
2018-07-05T13:44:41.684Z,59.95
2018-07-05T13:47:21.886Z,58.50
2018-07-05T13:50:01.493Z,60.10
2018-07-05T13:52:42.652Z,59.97
2018-07-05T13:55:22.985Z,60.00
2018-07-05T13:58:04.083Z,59.79
2018-07-05T14:00:44.146Z,58.73
2018-07-05T14:03:24.655Z,58.05
2018-07-05T14:06:04.775Z,59.21
2018-07-05T14:08:45.202Z,58.45
2018-07-05T14:11:26.657Z,58.04
2018-07-05T14:14:06.685Z,58.41
2018-07-05T14:16:47.168Z,57.68
2018-07-05T14:19:28.655Z,57.82
2018-07-05T14:22:10.059Z,58.49
2018-07-05T14:24:50.671Z,58.32
2018-07-05T14:27:31.457Z,58.92
2018-07-05T14:30:11.139Z,59.79
2018-07-05T14:32:51.259Z,58.88
2018-07-05T14:35:31.312Z,60.36
2018-07-05T14:38:12.049Z,60.26
2018-07-05T14:40:52.533Z,60.85
2018-07-05T14:43:32.256Z,61.12
2018-07-05T14:46:13.073Z,61.47
2018-07-05T14:48:54.463Z,60.89
2018-07-05T14:51:35.423Z,60.54
2018-07-05T14:54:16.965Z,61.12
2018-07-05T14:56:57.670Z,61.31
2018-07-05T14:59:37.736Z,61.31
2018-07-05T15:02:17.432Z,61.62
2018-07-05T15:04:57.114Z,62.65
2018-07-05T15:07:36.892Z,62.78
2018-07-05T15:10:16.821Z,62.72
2018-07-05T15:12:56.800Z,63.24
2018-07-05T15:15:36.441Z,62.47
2018-07-05T15:18:16.338Z,63.19
2018-07-05T15:20:56.190Z,62.59
2018-07-05T15:23:36.156Z,64.73
2018-07-05T15:26:15.980Z,63.80
2018-07-05T15:28:56.371Z,62.93
2018-07-05T15:31:36.244Z,62.76
2018-07-05T15:34:16.449Z,63.45
2018-07-05T15:36:56.240Z,63.36
2018-07-05T15:39:36.002Z,62.60
2018-07-05T15:42:15.795Z,63.25
2018-07-05T15:44:55.642Z,63.04
2018-07-05T15:47:35.357Z,62.40
2018-07-05T15:50:15.076Z,62.99
2018-07-05T15:52:54.936Z,63.06
2018-07-05T15:55:34.766Z,63.50
2018-07-05T15:58:14.532Z,63.24
2018-07-05T16:00:54.608Z,62.73
2018-07-05T16:03:35.302Z,63.07
2018-07-05T16:06:15.231Z,63.20
2018-07-05T16:08:54.887Z,63.16
2018-07-05T16:11:34.796Z,62.35
2018-07-05T16:14:14.852Z,62.20
2018-07-05T16:16:54.649Z,62.31
2018-07-05T16:19:34.608Z,63.16
2018-07-05T16:22:14.296Z,62.90
2018-07-05T16:24:54.063Z,62.87
2018-07-05T16:27:34.114Z,63.48
2018-07-05T16:30:13.852Z,63.70
2018-07-05T16:32:54.527Z,63.00
2018-07-05T16:35:34.374Z,62.98
2018-07-05T16:38:14.323Z,62.35
2018-07-05T16:40:55.079Z,63.53
2018-07-05T16:43:35.370Z,62.23
2018-07-05T16:46:15.264Z,62.60
2018-07-05T16:48:55.145Z,62.55
2018-07-05T16:51:34.914Z,62.40
2018-07-05T16:54:14.808Z,61.87
2018-07-05T16:56:54.609Z,61.07
2018-07-05T16:59:34.604Z,61.42
2018-07-05T17:02:14.404Z,62.28
2018-07-05T17:04:54.220Z,62.47
2018-07-05T17:07:33.816Z,63.30
2018-07-05T17:10:13.928Z,63.24
2018-07-05T17:12:53.839Z,62.18
2018-07-05T17:15:33.777Z,62.63
2018-07-05T17:18:13.535Z,64.05
2018-07-05T17:20:53.408Z,64.03
2018-07-05T17:23:33.116Z,64.19
2018-07-05T17:26:13.038Z,63.78
2018-07-05T17:28:52.935Z,63.84
2018-07-05T17:31:32.611Z,63.64
2018-07-05T17:34:12.572Z,63.27
2018-07-05T17:36:52.214Z,62.92
2018-07-05T17:39:31.921Z,63.66
2018-07-05T17:42:11.993Z,62.90
2018-07-05T17:44:51.744Z,63.11
2018-07-05T17:47:31.404Z,64.30
2018-07-05T17:50:11.255Z,64.01
2018-07-05T17:52:50.912Z,64.71
2018-07-05T17:55:30.692Z,63.81
2018-07-05T17:58:11.592Z,64.19
2018-07-05T18:00:51.359Z,63.74
2018-07-05T18:03:31.243Z,64.53
2018-07-05T18:06:11.327Z,66.79
2018-07-05T18:08:51.412Z,68.24
2018-07-05T18:11:31.109Z,67.77
2018-07-05T18:14:10.944Z,68.40
2018-07-05T18:16:50.966Z,67.43
2018-07-05T18:19:31.199Z,67.28
2018-07-05T18:22:11.058Z,68.79
2018-07-05T18:24:51.214Z,67.65
2018-07-05T18:27:30.927Z,67.83
2018-07-05T18:30:10.795Z,67.70
2018-07-05T18:32:50.673Z,66.84
2018-07-05T18:35:30.472Z,67.24
2018-07-05T18:38:10.223Z,67.15
2018-07-05T18:40:49.884Z,67.23
2018-07-05T18:43:29.529Z,67.40
2018-07-05T18:46:09.481Z,67.85
2018-07-05T18:48:49.626Z,68.56
2018-07-05T18:51:29.407Z,69.82
2018-07-05T18:54:09.418Z,68.59
2018-07-05T18:56:49.563Z,68.90
2018-07-05T18:59:29.300Z,69.21
2018-07-05T19:02:09.123Z,71.17
2018-07-05T19:04:48.880Z,69.93
2018-07-05T19:07:28.880Z,70.67
2018-07-05T19:10:08.711Z,70.63
2018-07-05T19:12:48.753Z,69.81
2018-07-05T19:15:28.616Z,70.56
2018-07-05T19:18:08.649Z,70.08
2018-07-05T19:20:48.726Z,69.84
2018-07-05T19:23:28.568Z,69.78
2018-07-05T19:26:08.256Z,69.29
2018-07-05T19:28:48.060Z,68.87
2018-07-05T19:31:27.987Z,69.21
2018-07-05T19:34:07.808Z,71.06
2018-07-05T19:36:47.635Z,71.70
2018-07-05T19:39:27.734Z,72.36
2018-07-05T19:42:07.471Z,71.82
2018-07-05T19:44:47.448Z,72.00
2018-07-05T19:47:27.156Z,72.22
2018-07-05T19:50:07.235Z,71.82
2018-07-05T19:52:47.210Z,73.32
2018-07-05T19:55:27.356Z,73.79
2018-07-05T19:58:07.009Z,73.28
2018-07-05T20:00:47.250Z,73.30
2018-07-05T20:03:27.008Z,72.61
2018-07-05T20:06:06.867Z,73.22
2018-07-05T20:08:46.669Z,71.86
2018-07-05T20:11:26.596Z,71.28
2018-07-05T20:14:06.400Z,71.17
2018-07-05T20:16:46.594Z,69.66
2018-07-05T20:19:26.346Z,70.05
2018-07-05T20:22:10.366Z,70.25
2018-07-05T20:24:49.976Z,70.37
2018-07-05T20:27:30.012Z,70.25
2018-07-05T20:30:09.821Z,73.24
2018-07-05T20:32:50.023Z,72.34
2018-07-05T20:35:29.961Z,73.99
2018-07-05T20:38:10.134Z,73.41
2018-07-05T20:40:49.963Z,72.69
2018-07-05T20:43:29.927Z,71.99
2018-07-05T20:46:09.731Z,71.59
2018-07-05T20:48:49.716Z,71.50
2018-07-05T20:51:29.639Z,70.51
2018-07-05T20:54:09.619Z,71.13
2018-07-05T20:56:49.443Z,72.62
2018-07-05T20:59:29.720Z,70.78
2018-07-05T21:02:09.764Z,70.43
2018-07-05T21:04:49.796Z,69.86
2018-07-05T21:07:29.559Z,70.55
2018-07-05T21:10:09.416Z,69.32
2018-07-05T21:12:49.201Z,69.30
2018-07-05T21:15:29.151Z,70.25
2018-07-05T21:18:08.875Z,71.06
2018-07-05T21:20:48.812Z,71.21
2018-07-05T21:23:28.933Z,72.02
2018-07-05T21:26:08.796Z,72.09
2018-07-05T21:28:48.453Z,71.09
2018-07-05T21:31:28.908Z,70.13
2018-07-05T21:34:08.657Z,69.94
2018-07-05T21:36:48.687Z,70.75
2018-07-05T21:39:28.373Z,71.86
2018-07-05T21:42:08.352Z,72.21
2018-07-05T21:44:48.065Z,72.43
2018-07-05T21:47:27.928Z,72.53
2018-07-05T21:50:07.984Z,72.54
2018-07-05T21:52:47.797Z,70.86
2018-07-05T21:55:27.604Z,70.94
2018-07-05T21:58:07.394Z,70.06
2018-07-05T22:00:47.151Z,70.58
2018-07-05T22:03:26.927Z,70.20
2018-07-05T22:06:06.797Z,70.42
2018-07-05T22:08:47.014Z,71.25
2018-07-05T22:11:26.595Z,70.82
2018-07-05T22:14:06.770Z,70.73
2018-07-05T22:16:52.000Z,72.07
2018-07-05T22:19:36.992Z,71.69
2018-07-05T22:22:21.977Z,72.52
2018-07-05T22:25:07.371Z,71.98
2018-07-05T22:27:52.540Z,71.66
2018-07-05T22:30:37.716Z,72.77
2018-07-05T22:33:17.376Z,74.23
2018-07-05T22:35:57.036Z,73.03
2018-07-05T22:38:36.640Z,72.49
2018-07-05T22:41:16.488Z,72.78
2018-07-05T22:43:56.260Z,74.19
2018-07-05T22:46:35.979Z,72.84
2018-07-05T22:49:15.880Z,73.80
2018-07-05T22:51:55.908Z,73.80
2018-07-05T22:54:35.704Z,73.10
2018-07-05T22:57:15.515Z,73.69
2018-07-05T22:59:55.235Z,73.86
2018-07-05T23:02:34.997Z,73.40
2018-07-05T23:05:14.801Z,73.65
2018-07-05T23:07:54.507Z,73.26
2018-07-05T23:10:34.388Z,73.83
2018-07-05T23:13:14.464Z,74.16
2018-07-05T23:15:54.067Z,73.41
2018-07-05T23:18:34.202Z,72.64
2018-07-05T23:21:14.012Z,74.08
2018-07-05T23:23:53.772Z,73.89
2018-07-05T23:26:33.427Z,73.80
2018-07-05T23:29:13.040Z,73.03
2018-07-05T23:31:53.003Z,72.68
2018-07-05T23:34:33.232Z,72.83
2018-07-05T23:37:13.092Z,72.73
2018-07-05T23:39:52.835Z,71.20
2018-07-05T23:42:33.264Z,71.65
2018-07-05T23:45:12.960Z,71.94
2018-07-05T23:47:52.680Z,72.03
2018-07-05T23:50:33.024Z,72.00
2018-07-05T23:53:12.795Z,72.33
2018-07-05T23:55:52.720Z,72.25
2018-07-05T23:58:32.608Z,73.45
